Time;durP1;ratioP1;P1;durP2;ratioP2;P2;SDS_P1;SDS_P2;PMS_P1;PMS_P2;Temp;Humidity;BMP_temperature;BMP_pressure;BME280_temperature;BME280_humidity;BME280_pressure;Samples;Min_cycle;Max_cycle;Signal;HPM_P1;HPM_P2
2021/05/18 00:01:35;;;;;;;6.15;4.32;;;12.90;92.60;;;;;;5014739;28;20041;-63
2021/05/18 00:04:00;;;;;;;5.07;3.42;;;12.80;92.60;;;;;;5024462;28;20054;-64
2021/05/18 00:06:27;;;;;;;5.38;3.78;;;12.90;92.70;;;;;;5011680;28;20064;-63
2021/05/18 00:11:44;;;;;;;5.78;4.03;;;12.80;92.70;;;;;;5031906;28;20037;-62
2021/05/18 00:14:12;;;;;;;4.50;3.97;;;12.80;92.80;;;;;;5031265;28;20041;-63
2021/05/18 00:16:38;;;;;;;5.05;4.03;;;12.60;93.50;;;;;;5029969;28;20037;-63
2021/05/18 00:19:05;;;;;;;5.18;3.90;;;12.70;93.10;;;;;;5020038;28;20049;-62
2021/05/18 00:21:32;;;;;;;5.53;3.95;;;12.60;93.20;;;;;;5011842;28;20398;-60
2021/05/18 00:23:57;;;;;;;6.30;4.85;;;12.50;93.50;;;;;;5014484;28;20025;-63
2021/05/18 00:26:23;;;;;;;5.75;4.40;;;12.70;93.20;;;;;;5012946;28;20026;-63
2021/05/18 00:28:49;;;;;;;7.20;5.43;;;12.60;93.30;;;;;;5011156;28;20037;-62
2021/05/18 00:31:14;;;;;;;6.55;5.63;;;12.50;93.70;;;;;;5010931;28;20061;-65
2021/05/18 00:33:42;;;;;;;7.47;6.20;;;12.40;93.80;;;;;;5029434;28;20063;-63
2021/05/18 00:36:09;;;;;;;7.80;6.75;;;12.50;93.80;;;;;;5017941;28;20022;-64
2021/05/18 00:38:35;;;;;;;7.32;6.25;;;12.40;94.10;;;;;;5037382;28;20357;-64
2021/05/18 00:41:01;;;;;;;8.95;7.60;;;12.50;93.90;;;;;;5037042;28;20029;-63
2021/05/18 00:43:27;;;;;;;8.25;6.95;;;12.50;93.70;;;;;;5037911;28;20433;-64
2021/05/18 00:45:53;;;;;;;8.95;7.82;;;12.60;93.70;;;;;;5036704;28;20029;-62
2021/05/18 00:48:22;;;;;;;8.98;7.53;;;12.50;93.90;;;;;;5044053;28;20028;-64
2021/05/18 00:50:56;;;;;;;8.95;8.05;;;12.40;94.20;;;;;;5037861;28;20120;-65
2021/05/18 00:53:23;;;;;;;10.23;8.65;;;12.40;94.80;;;;;;5037359;28;20474;-64
2021/05/18 00:55:56;;;;;;;9.52;8.50;;;12.40;95.00;;;;;;5037879;28;20030;-65
2021/05/18 00:58:26;;;;;;;9.10;7.68;;;12.30;95.60;;;;;;5037523;28;20048;-66
2021/05/18 01:00:55;;;;;;;10.00;7.90;;;12.30;95.80;;;;;;5037270;28;20508;-66
2021/05/18 01:03:22;;;;;;;11.05;9.48;;;12.20;96.30;;;;;;5038131;28;20033;-66
2021/05/18 01:08:32;;;;;;;12.18;10.63;;;11.70;97.80;;;;;;5037496;28;20029;-67
2021/05/18 01:10:58;;;;;;;15.18;12.40;;;11.70;97.70;;;;;;5036510;28;20060;-67
2021/05/18 01:13:24;;;;;;;13.73;11.93;;;11.70;97.90;;;;;;5035462;28;20041;-68
2021/05/18 01:15:50;;;;;;;14.63;12.82;;;11.70;97.40;;;;;;5037109;28;20155;-67
2021/05/18 01:18:15;;;;;;;16.65;13.20;;;11.60;97.70;;;;;;5038014;28;20124;-66
2021/05/18 01:20:56;;;;;;;14.98;13.38;;;11.60;97.90;;;;;;5037134;28;20048;-67
2021/05/18 01:23:22;;;;;;;17.55;13.57;;;11.70;98.00;;;;;;5026406;28;20046;-66
2021/05/18 01:25:48;;;;;;;17.35;13.98;;;11.70;97.80;;;;;;5037872;28;20036;-66
2021/05/18 01:28:13;;;;;;;17.75;15.35;;;11.70;98.10;;;;;;5036188;28;20063;-65
2021/05/18 01:30:39;;;;;;;17.30;14.82;;;11.60;97.90;;;;;;5032613;28;20041;-64
2021/05/18 01:33:05;;;;;;;20.60;15.57;;;11.70;97.90;;;;;;5033596;28;20079;-66
2021/05/18 01:35:31;;;;;;;18.95;14.57;;;11.70;97.70;;;;;;5040516;28;20480;-66
2021/05/18 01:37:56;;;;;;;19.15;15.38;;;11.90;97.40;;;;;;5037481;28;20037;-64
2021/05/18 01:42:51;;;;;;;19.55;15.73;;;11.90;97.40;;;;;;5036768;28;20485;-64
2021/05/18 01:45:20;;;;;;;17.50;14.90;;;12.00;96.90;;;;;;5030380;28;20485;-65
2021/05/18 01:47:52;;;;;;;18.63;15.40;;;11.90;97.00;;;;;;5034275;28;20045;-64
2021/05/18 01:50:22;;;;;;;19.27;15.20;;;11.90;97.20;;;;;;5034680;28;20086;-64
2021/05/18 01:52:48;;;;;;;22.05;17.02;;;12.00;96.80;;;;;;5031456;28;20037;-64
2021/05/18 01:56:03;;;;;;;21.00;16.15;;;12.00;96.90;;;;;;5031613;28;20034;-63
2021/05/18 01:58:04;;;;;;;21.92;17.00;;;11.90;97.10;;;;;;5026319;28;20083;-63
2021/05/18 02:00:32;;;;;;;20.95;17.05;;;11.90;97.00;;;;;;5033919;28;20029;-64
2021/05/18 02:02:58;;;;;;;18.98;15.77;;;11.90;96.80;;;;;;5032951;28;20501;-62
2021/05/18 02:05:28;;;;;;;19.27;15.88;;;12.00;96.40;;;;;;5034073;28;20511;-62
2021/05/18 02:07:56;;;;;;;20.92;16.23;;;12.10;96.20;;;;;;5032102;28;20041;-62
2021/05/18 02:10:22;;;;;;;18.17;15.32;;;12.00;96.40;;;;;;5034527;28;20037;-63
2021/05/18 02:12:48;;;;;;;19.08;16.17;;;12.00;96.40;;;;;;5030861;28;20033;-63
2021/05/18 02:15:36;;;;;;;18.60;16.50;;;11.90;96.20;;;;;;5049143;28;20038;-63
2021/05/18 02:21:19;;;;;;;21.38;17.02;;;11.90;96.40;;;;;;5031598;28;20038;-63
2021/05/18 02:26:29;;;;;;;20.55;17.60;;;11.80;96.60;;;;;;5033748;28;20116;-62
2021/05/18 02:28:55;;;;;;;21.45;18.80;;;11.80;96.50;;;;;;5037953;28;20122;-63
2021/05/18 02:31:22;;;;;;;25.77;20.00;;;11.90;96.20;;;;;;5029349;28;20497;-64
2021/05/18 02:33:50;;;;;;;21.45;17.80;;;11.90;96.40;;;;;;5031666;28;20030;-63
2021/05/18 02:36:17;;;;;;;20.00;17.58;;;11.80;96.70;;;;;;5033764;28;20021;-63
2021/05/18 02:38:43;;;;;;;22.13;18.13;;;11.90;96.30;;;;;;5047864;28;20018;-63
2021/05/18 02:41:09;;;;;;;23.55;19.13;;;11.80;96.70;;;;;;5033595;28;20135;-62
2021/05/18 02:43:46;;;;;;;21.45;18.17;;;11.80;96.30;;;;;;5047035;28;20065;-62
2021/05/18 02:51:27;;;;;;;23.65;18.17;;;12.00;96.10;;;;;;5033421;28;20030;-61
2021/05/18 02:53:53;;;;;;;22.67;18.27;;;12.00;96.20;;;;;;5033367;28;20045;-63
2021/05/18 02:56:27;;;;;;;24.27;19.17;;;11.90;96.40;;;;;;5033525;28;20029;-61
2021/05/18 03:01:41;;;;;;;25.02;19.50;;;11.50;97.20;;;;;;5020459;28;20045;-63
2021/05/18 03:04:08;;;;;;;24.60;18.77;;;11.50;97.40;;;;;;5032887;28;20041;-62
2021/05/18 03:06:34;;;;;;;25.27;19.25;;;11.40;97.50;;;;;;5033091;28;20124;-63
2021/05/18 03:09:00;;;;;;;21.52;18.48;;;11.40;97.50;;;;;;5032617;28;20489;-62
2021/05/18 03:11:27;;;;;;;21.10;17.13;;;11.40;97.50;;;;;;5032918;28;20511;-63
2021/05/18 03:13:54;;;;;;;21.00;16.50;;;11.50;97.00;;;;;;5032773;28;20042;-62
2021/05/18 03:16:20;;;;;;;20.10;15.98;;;11.50;97.20;;;;;;5033042;28;20075;-62
2021/05/18 03:18:46;;;;;;;19.02;15.80;;;11.60;96.70;;;;;;5047991;28;20033;-63
2021/05/18 03:21:11;;;;;;;17.77;15.23;;;11.50;96.90;;;;;;5030961;28;20104;-62
2021/05/18 03:23:37;;;;;;;17.83;15.20;;;11.60;96.60;;;;;;5032832;28;20069;-64
2021/05/18 03:26:03;;;;;;;17.98;15.48;;;11.60;96.40;;;;;;5032494;28;20083;-62
2021/05/18 03:28:29;;;;;;;18.52;16.00;;;11.60;96.40;;;;;;5031073;28;20044;-63
2021/05/18 03:36:10;;;;;;;17.25;15.35;;;11.60;96.50;;;;;;5032570;28;20025;-63
2021/05/18 03:38:42;;;;;;;18.50;14.90;;;11.60;96.50;;;;;;5031948;28;20084;-63
2021/05/18 03:41:13;;;;;;;22.23;14.65;;;11.50;96.60;;;;;;5032141;28;20125;-62
2021/05/18 03:43:49;;;;;;;18.30;14.40;;;11.40;96.70;;;;;;5032347;28;20034;-62
2021/05/18 03:52:18;;;;;;;20.23;14.38;;;11.50;96.50;;;;;;5032256;28;20060;-62
2021/05/18 04:03:30;;;;;;;15.82;13.80;;;11.50;96.20;;;;;;5041267;28;20033;-63
2021/05/18 04:18:57;;;;;;;16.33;13.25;;;11.50;96.10;;;;;;5031533;28;20038;-66
2021/05/18 04:24:03;;;;;;;16.17;13.52;;;11.60;95.90;;;;;;5031973;28;20048;-60
2021/05/18 04:53:24;;;;;;;15.52;12.25;;;11.90;95.00;;;;;;5030811;28;20036;-63
2021/05/18 05:16:44;;;;;;;14.18;10.93;;;12.10;95.30;;;;;;5032379;28;20037;-61
2021/05/18 05:19:10;;;;;;;13.35;10.75;;;12.20;94.90;;;;;;5046401;28;20120;-61
2021/05/18 05:21:36;;;;;;;13.90;11.88;;;12.10;94.60;;;;;;5017251;28;20038;-61
2021/05/18 05:24:02;;;;;;;15.85;12.93;;;12.00;95.10;;;;;;5034174;28;20421;-63
2021/05/18 05:26:29;;;;;;;19.65;13.10;;;11.90;94.70;;;;;;5034857;28;20489;-60
2021/05/18 05:28:55;;;;;;;13.55;11.88;;;11.70;94.70;;;;;;5034205;28;20064;-60
2021/05/18 05:31:20;;;;;;;18.50;12.50;;;11.70;94.40;;;;;;5035479;28;20470;-61
2021/05/18 05:33:46;;;;;;;14.15;11.93;;;11.90;94.50;;;;;;5034915;28;20128;-61
2021/05/18 05:36:11;;;;;;;16.48;12.02;;;12.00;94.10;;;;;;5035136;28;20497;-61
2021/05/18 05:38:38;;;;;;;16.25;12.20;;;12.00;94.00;;;;;;5035008;28;20441;-62
2021/05/18 05:41:03;;;;;;;16.65;11.65;;;11.90;94.00;;;;;;5035641;28;20048;-62
2021/05/18 05:43:29;;;;;;;17.60;12.65;;;12.00;94.00;;;;;;5036984;28;20037;-63
2021/05/18 05:45:54;;;;;;;18.45;13.75;;;11.70;94.30;;;;;;5038017;28;20474;-62
2021/05/18 05:48:20;;;;;;;18.33;12.88;;;11.60;94.40;;;;;;5036526;28;20037;-63
2021/05/18 05:50:47;;;;;;;15.93;12.95;;;11.40;94.50;;;;;;5036384;28;20083;-63
2021/05/18 05:53:12;;;;;;;19.10;13.27;;;11.40;94.70;;;;;;5034929;28;20048;-62
2021/05/18 05:55:38;;;;;;;24.60;13.10;;;11.40;94.60;;;;;;5035518;28;20038;-63
2021/05/18 05:58:04;;;;;;;19.33;12.57;;;11.50;94.20;;;;;;5038773;28;20021;-63
2021/05/18 06:00:30;;;;;;;16.45;12.95;;;11.70;94.20;;;;;;5037303;28;20339;-64
2021/05/18 06:02:55;;;;;;;20.02;12.85;;;11.60;94.30;;;;;;5035175;28;20036;-60
2021/05/18 06:05:21;;;;;;;16.52;12.05;;;11.80;93.70;;;;;;5035109;28;20160;-63
2021/05/18 06:07:46;;;;;;;17.38;12.40;;;11.90;93.90;;;;;;5034374;28;20033;-63
2021/05/18 06:47:50;;;;;;;20.02;10.50;;;12.60;91.40;;;;;;5033829;28;20026;-63
2021/05/18 06:52:46;;;;;;;15.82;9.98;;;13.00;90.90;;;;;;5033291;28;20530;-63
2021/05/18 06:55:23;;;;;;;14.38;10.18;;;13.00;90.60;;;;;;5033482;28;20489;-63
2021/05/18 06:57:51;;;;;;;15.57;10.48;;;12.60;90.80;;;;;;5033526;28;20083;-64
2021/05/18 07:00:20;;;;;;;17.75;10.43;;;12.50;91.40;;;;;;5034202;28;20087;-62
2021/05/18 07:02:49;;;;;;;12.13;9.60;;;12.80;91.10;;;;;;5033554;28;20033;-63
2021/05/18 07:05:39;;;;;;;13.93;9.02;;;12.90;91.00;;;;;;5033426;28;20049;-63
2021/05/18 07:10:42;;;;;;;;;;;12.80;90.30;;;;;;5033640;28;20030;-63
2021/05/18 07:13:08;;;;;;;14.57;8.90;;;12.90;90.50;;;;;;5033212;28;19913;-61
2021/05/18 07:15:34;;;;;;;15.73;8.30;;;13.20;89.40;;;;;;5024502;28;20090;-61
2021/05/18 07:18:00;;;;;;;11.88;8.40;;;13.30;88.70;;;;;;5026241;28;20030;-61
2021/05/18 07:20:26;;;;;;;15.63;8.55;;;13.60;88.30;;;;;;5027348;28;20103;-61
2021/05/18 07:22:56;;;;;;;12.18;8.48;;;13.40;89.00;;;;;;5025283;28;20095;-61
2021/05/18 07:25:22;;;;;;;13.55;8.75;;;13.60;87.50;;;;;;5033603;28;20033;-63
2021/05/18 07:27:48;;;;;;;14.68;8.43;;;13.50;88.60;;;;;;5032597;28;20099;-63
2021/05/18 07:30:15;;;;;;;13.32;8.07;;;13.50;86.10;;;;;;5031696;28;20555;-61
2021/05/18 07:32:40;;;;;;;12.57;8.80;;;13.30;87.00;;;;;;5032929;28;20485;-60
2021/05/18 07:35:07;;;;;;;11.30;8.38;;;13.50;86.90;;;;;;5032978;28;20111;-62
2021/05/18 07:37:34;;;;;;;12.45;8.52;;;13.60;86.80;;;;;;5021545;28;20061;-60
2021/05/18 07:39:59;;;;;;;10.60;7.40;;;13.70;86.40;;;;;;5012685;28;20053;-59
2021/05/18 07:42:25;;;;;;;13.52;8.20;;;13.80;85.80;;;;;;5017379;28;20084;-62
2021/05/18 07:44:51;;;;;;;14.70;9.25;;;13.80;85.80;;;;;;5031975;28;20029;-62
2021/05/18 07:47:17;;;;;;;14.10;9.43;;;13.70;85.60;;;;;;5031071;28;20478;-62
2021/05/18 07:49:47;;;;;;;14.32;9.48;;;13.70;86.60;;;;;;5032633;28;20030;-62
2021/05/18 08:05:32;;;;;;;14.73;9.10;;;13.60;84.60;;;;;;5033733;28;20029;-61
2021/05/18 08:07:58;;;;;;;13.80;9.30;;;13.70;83.70;;;;;;5034100;28;20013;-61
2021/05/18 08:12:49;;;;;;;11.00;7.90;;;13.60;83.90;;;;;;5033237;28;20033;-63
2021/05/18 10:36:34;;;;;;;9.52;6.05;;;16.50;74.90;;;;;;5041530;28;20087;-62
2021/05/18 10:39:26;;;;;;;10.60;6.80;;;16.40;75.50;;;;;;5039065;28;20033;-62
2021/05/18 10:41:52;;;;;;;9.00;6.80;;;16.00;76.10;;;;;;5033959;28;20056;-62
2021/05/18 10:44:20;;;;;;;10.48;6.70;;;15.80;75.50;;;;;;5034362;28;20037;-63
2021/05/18 10:46:58;;;;;;;11.80;7.10;;;16.00;76.30;;;;;;5040532;28;20104;-62
2021/05/18 10:49:38;;;;;;;12.27;7.20;;;15.80;76.80;;;;;;5015877;28;20059;-62
2021/05/18 10:52:06;;;;;;;16.23;6.95;;;15.70;76.60;;;;;;5014686;28;20041;-64
2021/05/18 10:54:43;;;;;;;12.75;7.15;;;15.40;78.00;;;;;;5025603;28;20042;-63
2021/05/18 10:57:29;;;;;;;8.20;6.82;;;15.40;77.30;;;;;;5018334;28;20030;-62
2021/05/18 10:59:57;;;;;;;9.20;6.10;;;15.50;78.00;;;;;;5018225;28;20048;-63
2021/05/18 11:02:39;;;;;;;9.27;6.15;;;15.70;77.50;;;;;;5014737;28;20077;-62
2021/05/18 11:05:10;;;;;;;9.70;6.05;;;16.00;76.40;;;;;;5049742;28;20397;-62
2021/05/18 11:07:44;;;;;;;9.27;6.03;;;15.90;75.90;;;;;;5041564;28;20032;-61
2021/05/18 11:10:15;;;;;;;7.22;6.05;;;16.00;75.20;;;;;;5030489;28;20049;-63
2021/05/18 11:12:42;;;;;;;8.00;5.63;;;15.70;75.10;;;;;;5015456;28;20041;-63
2021/05/18 11:15:17;;;;;;;8.95;6.00;;;15.70;74.70;;;;;;5018291;28;20049;-63
2021/05/18 11:17:49;;;;;;;;;;;15.60;75.50;;;;;;5017358;28;20557;-64
2021/05/18 11:25:36;;;;;;;12.35;6.22;;;15.20;75.80;;;;;;5036722;28;20025;-63
2021/05/18 11:28:29;;;;;;;11.18;6.75;;;15.30;77.50;;;;;;5025129;28;20087;-63
2021/05/18 11:30:58;;;;;;;9.93;6.07;;;15.30;76.40;;;;;;5032838;28;20038;-61
2021/05/18 11:33:34;;;;;;;12.85;6.40;;;15.30;77.60;;;;;;5029682;28;20056;-62
2021/05/18 11:36:02;;;;;;;12.25;6.78;;;15.30;77.90;;;;;;5023696;28;20030;-65
2021/05/18 11:38:29;;;;;;;12.25;7.20;;;15.30;78.10;;;;;;5032927;28;20032;-62
2021/05/18 11:40:55;;;;;;;11.18;6.25;;;15.20;78.70;;;;;;5034196;28;20033;-62
2021/05/18 11:43:37;;;;;;;10.77;6.25;;;15.40;79.10;;;;;;5037754;28;20025;-60
2021/05/18 11:46:09;;;;;;;8.18;6.43;;;15.70;77.90;;;;;;5046538;28;20104;-62
2021/05/18 11:48:36;;;;;;;9.30;6.15;;;15.80;76.60;;;;;;5039454;28;20079;-62
2021/05/18 11:51:13;;;;;;;9.38;6.32;;;16.00;76.10;;;;;;5038163;28;20032;-63
2021/05/18 11:54:03;;;;;;;9.02;6.15;;;15.90;76.80;;;;;;5030662;28;20099;-62
2021/05/18 11:56:31;;;;;;;12.32;6.78;;;16.20;75.80;;;;;;5042217;28;20022;-63
2021/05/18 11:59:03;;;;;;;7.05;5.90;;;16.20;75.10;;;;;;5040320;28;20029;-63
2021/05/18 12:01:30;;;;;;;11.13;6.15;;;16.20;74.80;;;;;;5034485;28;20461;-63
2021/05/18 12:04:16;;;;;;;7.97;5.45;;;16.30;75.20;;;;;;5034205;28;20041;-62
2021/05/18 12:06:57;;;;;;;10.68;6.15;;;16.40;75.10;;;;;;5038577;28;20057;-63
2021/05/18 12:09:23;;;;;;;9.77;6.40;;;16.50;74.60;;;;;;5045536;28;20040;-63
2021/05/18 12:11:56;;;;;;;9.98;6.57;;;16.20;73.40;;;;;;5037207;28;20546;-63
2021/05/18 12:14:23;;;;;;;9.95;5.80;;;16.30;74.40;;;;;;5034480;28;20026;-62
2021/05/18 12:16:49;;;;;;;9.60;5.53;;;16.20;74.70;;;;;;5035459;28;20026;-63
2021/05/18 12:19:17;;;;;;;9.50;6.15;;;16.10;74.00;;;;;;5043704;28;20037;-62
2021/05/18 12:21:46;;;;;;;10.10;5.45;;;16.20;73.10;;;;;;5039753;28;20048;-62
2021/05/18 12:24:26;;;;;;;9.43;6.22;;;16.40;72.30;;;;;;5037204;28;20049;-62
2021/05/18 12:26:57;;;;;;;10.13;5.45;;;16.40;72.20;;;;;;5031226;28;20049;-63
2021/05/18 12:29:40;;;;;;;10.20;5.53;;;16.70;71.00;;;;;;5034306;28;20025;-63
2021/05/18 12:32:26;;;;;;;9.50;5.72;;;16.90;71.10;;;;;;5031998;28;20103;-62
2021/05/18 12:34:56;;;;;;;9.85;5.78;;;16.70;70.00;;;;;;5048218;28;20192;-63
2021/05/18 12:37:34;;;;;;;7.25;4.70;;;16.70;70.20;;;;;;5043542;28;20374;-63
2021/05/18 12:40:02;;;;;;;8.05;5.00;;;17.00;69.60;;;;;;5036756;28;20101;-61
2021/05/18 12:42:34;;;;;;;10.10;4.97;;;17.40;68.60;;;;;;5037120;28;20132;-62
2021/05/18 12:45:08;;;;;;;5.63;4.85;;;17.70;67.60;;;;;;5043862;28;20022;-62
2021/05/18 12:47:39;;;;;;;6.28;4.57;;;17.90;66.30;;;;;;5026775;28;20049;-62
2021/05/18 12:50:10;;;;;;;6.20;4.63;;;17.60;67.60;;;;;;5030996;28;20044;-63
2021/05/18 12:52:38;;;;;;;10.82;5.38;;;17.80;68.00;;;;;;5036303;28;20046;-63
2021/05/18 12:55:26;;;;;;;9.35;5.35;;;18.10;67.70;;;;;;5043189;28;20024;-62
2021/05/18 12:58:01;;;;;;;8.52;5.20;;;18.20;67.40;;;;;;5031478;28;20042;-63
2021/05/18 13:00:37;;;;;;;6.88;4.88;;;18.20;67.10;;;;;;5031222;28;20022;-62
2021/05/18 13:03:11;;;;;;;8.15;5.00;;;18.10;66.90;;;;;;5028696;28;20082;-63
2021/05/18 13:05:37;;;;;;;7.87;4.63;;;18.10;66.90;;;;;;5046572;28;20051;-63
2021/05/18 13:08:15;;;;;;;8.32;4.90;;;17.90;67.20;;;;;;5035118;28;20029;-63
2021/05/18 13:13:11;;;;;;;6.35;5.35;;;17.60;66.90;;;;;;5033522;28;20485;-62
2021/05/18 13:15:38;;;;;;;8.00;4.95;;;17.70;67.50;;;;;;5033559;28;20048;-62
2021/05/18 13:18:06;;;;;;;7.25;4.93;;;17.60;67.00;;;;;;5040260;28;20445;-62
2021/05/18 13:20:54;;;;;;;6.57;4.68;;;17.30;67.70;;;;;;5038718;28;20140;-63
2021/05/18 13:23:28;;;;;;;7.82;4.43;;;17.30;68.20;;;;;;5027269;28;20041;-62
2021/05/18 13:28:38;;;;;;;7.03;5.22;;;17.80;66.60;;;;;;5031215;28;20048;-63
2021/05/18 13:31:05;;;;;;;8.30;5.22;;;18.20;65.40;;;;;;5034755;28;20483;-62
2021/05/18 13:33:31;;;;;;;7.53;4.90;;;18.10;65.90;;;;;;5038991;28;20053;-62
2021/05/18 13:35:56;;;;;;;6.43;4.55;;;18.00;65.60;;;;;;5033579;28;20386;-63
2021/05/18 13:38:22;;;;;;;9.48;5.35;;;17.90;65.60;;;;;;5018921;28;20084;-62
2021/05/18 13:40:48;;;;;;;7.57;4.75;;;17.70;66.80;;;;;;5016025;28;20034;-63
2021/05/18 13:43:14;;;;;;;10.20;4.75;;;17.90;66.00;;;;;;5029088;28;20065;-62
2021/05/18 13:45:40;;;;;;;8.95;5.18;;;18.00;66.00;;;;;;5029927;28;20528;-62
2021/05/18 13:48:07;;;;;;;6.13;4.38;;;18.00;66.20;;;;;;5034670;28;20464;-63
2021/05/18 13:50:33;;;;;;;5.72;4.80;;;17.90;67.00;;;;;;5036777;28;20037;-62
2021/05/18 13:52:59;;;;;;;7.50;4.53;;;17.80;67.80;;;;;;5025679;28;20046;-66
2021/05/18 13:55:25;;;;;;;5.25;4.28;;;17.60;68.40;;;;;;5048620;28;20037;-64
2021/05/18 13:57:51;;;;;;;7.10;4.18;;;18.20;66.50;;;;;;5050755;28;20038;-64
2021/05/18 14:00:18;;;;;;;5.95;4.40;;;18.80;64.60;;;;;;5045614;28;20040;-62
2021/05/18 14:02:45;;;;;;;7.35;4.50;;;19.30;62.80;;;;;;5041116;28;20022;-62
2021/05/18 14:05:19;;;;;;;9.38;4.80;;;19.50;62.30;;;;;;5053460;28;20113;-64
2021/05/18 14:08:24;;;;;;;8.15;4.90;;;19.40;62.20;;;;;;5037162;28;20405;-69
2021/05/18 14:10:56;;;;;;;5.20;4.40;;;19.00;63.20;;;;;;5044494;28;20029;-66
2021/05/18 14:13:23;;;;;;;7.63;4.68;;;18.70;64.30;;;;;;5039466;28;20030;-63
2021/05/18 14:15:49;;;;;;;8.45;5.90;;;18.40;64.70;;;;;;5023401;28;20041;-66
2021/05/18 14:18:15;;;;;;;8.27;5.32;;;18.40;65.10;;;;;;5045850;28;20063;-64
2021/05/18 14:20:42;;;;;;;8.85;5.00;;;18.50;64.80;;;;;;5035964;28;20033;-64
2021/05/18 14:23:09;;;;;;;11.18;6.28;;;18.40;65.00;;;;;;5043254;28;20029;-65
2021/05/18 14:25:35;;;;;;;8.60;5.05;;;18.30;66.00;;;;;;5033960;28;20025;-64
2021/05/18 14:28:01;;;;;;;6.07;5.07;;;18.10;66.60;;;;;;5036010;28;20041;-64
2021/05/18 14:30:27;;;;;;;7.65;4.50;;;17.90;66.30;;;;;;5034272;28;20389;-64
2021/05/18 14:32:53;;;;;;;6.25;4.13;;;18.00;66.50;;;;;;5034784;28;20096;-63
2021/05/18 14:35:19;;;;;;;13.02;5.68;;;17.80;65.80;;;;;;5046537;28;20025;-64
2021/05/18 14:37:50;;;;;;;5.50;4.30;;;17.80;66.30;;;;;;5040896;28;20182;-64
2021/05/18 14:43:02;;;;;;;6.05;4.22;;;17.30;67.00;;;;;;5034139;28;20033;-64
2021/05/18 14:45:34;;;;;;;6.50;4.22;;;17.20;67.60;;;;;;5047870;28;20025;-62
2021/05/18 14:55:55;;;;;;;6.50;3.80;;;15.60;82.40;;;;;;5052736;28;20296;-65
2021/05/18 14:58:21;;;;;;;5.72;4.22;;;15.20;83.30;;;;;;5034893;28;20037;-65
2021/05/18 15:00:47;;;;;;;10.55;5.03;;;15.00;84.90;;;;;;5034326;28;20029;-65
2021/05/18 15:03:13;;;;;;;5.22;4.60;;;15.20;84.00;;;;;;5036209;28;20099;-65
2021/05/18 15:05:40;;;;;;;6.03;4.72;;;15.50;83.20;;;;;;5039136;28;20036;-63
2021/05/18 15:08:07;;;;;;;5.65;4.90;;;15.60;81.00;;;;;;5040341;28;20032;-64
2021/05/18 15:10:33;;;;;;;7.95;5.43;;;15.70;81.70;;;;;;5039843;28;20033;-64
2021/05/18 15:13:00;;;;;;;5.80;5.03;;;15.70;83.40;;;;;;5038153;28;20037;-63
2021/05/18 15:15:26;;;;;;;6.10;5.10;;;16.00;83.60;;;;;;5023924;28;20489;-64
2021/05/18 15:17:56;;;;;;;5.35;4.60;;;16.60;78.80;;;;;;5037174;28;20033;-60
2021/05/18 15:20:21;;;;;;;5.55;4.40;;;16.70;79.30;;;;;;5036211;28;20026;-52
2021/05/18 15:22:47;;;;;;;5.93;4.43;;;16.20;78.20;;;;;;5036087;28;21685;-57
2021/05/18 15:25:14;;;;;;;5.05;4.30;;;16.10;78.40;;;;;;5027534;28;20042;-61
2021/05/18 15:27:40;;;;;;;7.75;4.55;;;16.00;78.70;;;;;;5028081;28;20405;-56
2021/05/18 15:30:07;;;;;;;5.05;4.50;;;16.00;79.10;;;;;;5031854;28;20036;-57
2021/05/18 15:32:32;;;;;;;8.48;3.67;;;16.30;78.20;;;;;;5028956;28;20053;-57
2021/05/18 15:34:58;;;;;;;4.53;2.88;;;16.40;77.20;;;;;;5034209;28;20460;-58
2021/05/18 15:37:24;;;;;;;4.45;2.90;;;17.20;72.80;;;;;;5034333;28;20428;-57
2021/05/18 15:39:49;;;;;;;5.38;3.55;;;17.40;71.30;;;;;;5032271;28;20037;-57
2021/05/18 15:42:15;;;;;;;4.47;2.80;;;17.60;71.30;;;;;;5043339;28;20029;-54
2021/05/18 15:44:41;;;;;;;3.15;2.85;;;17.40;70.90;;;;;;5035266;28;20503;-57
2021/05/18 15:47:07;;;;;;;3.08;2.65;;;17.80;69.00;;;;;;5038973;28;20427;-58
2021/05/18 15:49:33;;;;;;;2.97;2.45;;;17.60;67.70;;;;;;5028196;28;20588;-55
2021/05/18 15:51:59;;;;;;;6.07;3.10;;;17.70;67.60;;;;;;5031772;28;20076;-58
2021/05/18 15:54:26;;;;;;;2.80;2.60;;;17.70;68.20;;;;;;5034859;28;20073;-55
2021/05/18 15:56:52;;;;;;;4.25;3.10;;;18.20;67.30;;;;;;5040709;28;20448;-59
2021/05/18 15:59:18;;;;;;;5.72;3.72;;;17.80;67.30;;;;;;5031160;28;20045;-62
2021/05/18 16:01:43;;;;;;;4.22;3.28;;;18.20;67.90;;;;;;5018999;28;20066;-53
2021/05/18 16:04:10;;;;;;;3.28;2.70;;;19.40;66.10;;;;;;5027111;28;20084;-59
2021/05/18 16:06:40;;;;;;;4.15;2.58;;;20.30;62.60;;;;;;5022423;28;20041;-57
2021/05/18 16:09:06;;;;;;;4.07;3.00;;;20.40;62.70;;;;;;5019172;28;20488;-57
2021/05/18 16:11:32;;;;;;;3.15;2.85;;;20.70;62.00;;;;;;5034829;28;20045;-58
2021/05/18 16:13:57;;;;;;;2.53;2.33;;;20.30;62.10;;;;;;5013006;28;20038;-59
2021/05/18 16:16:23;;;;;;;4.78;2.30;;;19.60;62.80;;;;;;5013646;28;20434;-59
2021/05/18 16:18:49;;;;;;;2.80;2.10;;;20.00;61.80;;;;;;5017819;28;20041;-60
2021/05/18 16:21:18;;;;;;;2.45;2.25;;;20.60;60.70;;;;;;5013750;28;20505;-62
2021/05/18 16:23:46;;;;;;;4.38;2.20;;;21.20;59.10;;;;;;5015699;28;20044;-59
2021/05/18 16:26:12;;;;;;;3.83;3.03;;;21.40;58.50;;;;;;5029358;28;20030;-59
2021/05/18 16:28:38;;;;;;;3.97;2.80;;;21.20;59.40;;;;;;5013972;28;20520;-59
2021/05/18 16:31:07;;;;;;;4.78;2.88;;;20.70;60.20;;;;;;5015017;28;20108;-59
2021/05/18 16:33:33;;;;;;;3.67;2.72;;;19.80;62.60;;;;;;5031463;28;20824;-59
2021/05/18 16:35:58;;;;;;;4.03;3.13;;;19.40;64.00;;;;;;5020378;28;20056;-60
2021/05/18 16:38:25;;;;;;;3.38;3.03;;;18.80;65.50;;;;;;5016115;28;20061;-58
2021/05/18 16:40:52;;;;;;;3.88;2.80;;;18.60;66.00;;;;;;5016040;28;20056;-56
2021/05/18 16:43:22;;;;;;;4.60;2.97;;;18.50;66.40;;;;;;5017850;28;20036;-59
2021/05/18 16:45:49;;;;;;;3.38;3.08;;;18.10;67.90;;;;;;5032303;28;20389;-59
2021/05/18 16:48:15;;;;;;;3.70;2.63;;;17.80;68.50;;;;;;5034635;28;20409;-59
2021/05/18 16:50:40;;;;;;;4.57;3.20;;;18.00;68.60;;;;;;5015042;28;20026;-58
2021/05/18 16:53:07;;;;;;;5.10;3.53;;;17.80;68.80;;;;;;5022103;28;20055;-59
2021/05/18 16:55:32;;;;;;;3.40;3.10;;;17.90;68.00;;;;;;5014825;28;20048;-57
2021/05/18 16:57:58;;;;;;;4.53;3.70;;;17.80;68.50;;;;;;5015225;28;20042;-57
2021/05/18 17:00:24;;;;;;;5.05;3.70;;;17.50;68.60;;;;;;5030407;28;20030;-59
2021/05/18 17:02:50;;;;;;;5.60;3.72;;;17.60;69.10;;;;;;5017718;28;20057;-56
2021/05/18 17:05:15;;;;;;;4.00;3.50;;;17.80;68.70;;;;;;5014547;28;20060;-60
2021/05/18 17:07:41;;;;;;;4.63;3.50;;;17.60;68.60;;;;;;5015041;28;20505;-61
2021/05/18 17:10:08;;;;;;;3.33;2.88;;;17.80;68.30;;;;;;5014834;28;20080;-58
2021/05/18 17:12:34;;;;;;;3.33;2.33;;;18.00;67.30;;;;;;5024134;28;20061;-59
2021/05/18 17:15:00;;;;;;;3.88;2.67;;;17.90;67.50;;;;;;5021659;28;20490;-57
2021/05/18 17:17:25;;;;;;;2.50;2.30;;;17.90;67.20;;;;;;5035967;28;20567;-57
2021/05/18 17:19:51;;;;;;;3.00;2.50;;;17.70;67.50;;;;;;5019158;28;20750;-60
2021/05/18 17:22:18;;;;;;;2.50;2.30;;;17.20;68.70;;;;;;5018802;28;20033;-63
2021/05/18 17:24:44;;;;;;;2.80;2.50;;;17.00;70.10;;;;;;5021150;28;20026;-60
2021/05/18 17:27:09;;;;;;;3.08;2.30;;;17.00;69.00;;;;;;5022916;28;20036;-59
2021/05/18 17:29:35;;;;;;;2.60;2.30;;;16.90;68.10;;;;;;5016436;28;20505;-62
2021/05/18 17:32:02;;;;;;;2.35;2.08;;;16.60;68.20;;;;;;5023196;28;20102;-61
2021/05/18 17:34:28;;;;;;;2.97;2.38;;;16.80;68.00;;;;;;5018306;28;20053;-60
2021/05/18 17:36:54;;;;;;;3.33;2.55;;;16.90;67.80;;;;;;5020655;28;20211;-59
2021/05/18 17:39:21;;;;;;;3.00;2.40;;;17.00;68.10;;;;;;5018281;28;20077;-57
2021/05/18 17:41:48;;;;;;;2.95;2.33;;;16.90;68.10;;;;;;5021638;28;20047;-59
2021/05/18 17:44:13;;;;;;;2.88;2.53;;;16.80;68.40;;;;;;5015294;28;20049;-60
2021/05/18 17:46:40;;;;;;;3.58;2.70;;;17.00;68.30;;;;;;5020426;28;20037;-63
2021/05/18 17:49:06;;;;;;;3.22;2.53;;;17.00;68.60;;;;;;5032065;28;20407;-61
2021/05/18 17:51:34;;;;;;;3.30;2.38;;;17.00;69.10;;;;;;5037293;28;20184;-61
2021/05/18 17:54:01;;;;;;;2.90;2.60;;;16.90;69.30;;;;;;5025066;28;20032;-61
2021/05/18 17:56:26;;;;;;;3.65;2.85;;;16.80;69.70;;;;;;5023718;28;20028;-61
2021/05/18 17:58:52;;;;;;;4.15;2.83;;;16.80;70.40;;;;;;5028122;28;20574;-60
2021/05/18 18:01:18;;;;;;;4.35;2.78;;;16.40;71.10;;;;;;5025821;28;20469;-60
2021/05/18 18:03:44;;;;;;;2.95;2.65;;;16.40;72.00;;;;;;5047781;28;20055;-60
2021/05/18 18:06:10;;;;;;;3.28;2.63;;;16.40;72.00;;;;;;5041633;28;20075;-58
2021/05/18 18:08:43;;;;;;;3.95;2.70;;;16.50;71.30;;;;;;5035640;28;20505;-57
2021/05/18 18:11:09;;;;;;;4.00;2.83;;;16.50;71.60;;;;;;5037080;28;20488;-60
2021/05/18 18:13:35;;;;;;;3.80;3.10;;;16.40;72.40;;;;;;5048547;28;20044;-59